createdAt,value
2018-03-02T00:00:51.077Z,27.40
2018-03-02T00:03:17.580Z,18.17
2018-03-02T00:05:43.940Z,24.95
2018-03-02T00:08:10.392Z,26.20
2018-03-02T00:10:37.015Z,29.73
2018-03-02T00:13:03.299Z,24.00
2018-03-02T00:15:29.547Z,23.50
2018-03-02T00:17:56.210Z,26.35
2018-03-02T00:20:22.811Z,30.02
2018-03-02T00:22:49.393Z,30.45
2018-03-02T00:25:15.907Z,27.37
2018-03-02T00:27:42.183Z,27.33
2018-03-02T00:30:08.903Z,31.65
2018-03-02T00:32:35.287Z,22.27
2018-03-02T00:35:01.826Z,24.90
2018-03-02T00:37:28.352Z,30.90
2018-03-02T00:39:54.816Z,27.98
2018-03-02T00:42:21.314Z,22.17
2018-03-02T00:44:47.728Z,30.40
2018-03-02T00:47:14.192Z,18.58
2018-03-02T00:49:40.453Z,19.42
2018-03-02T00:52:06.847Z,24.83
2018-03-02T00:54:33.327Z,28.87
2018-03-02T00:56:59.579Z,20.20
2018-03-02T00:59:25.840Z,32.08
2018-03-02T01:01:52.071Z,24.40
2018-03-02T01:04:19.697Z,24.73
2018-03-02T01:06:45.939Z,24.33
2018-03-02T01:09:12.462Z,25.65
2018-03-02T01:11:38.792Z,28.40
2018-03-02T01:14:05.321Z,27.20
2018-03-02T01:16:31.824Z,29.02
2018-03-02T01:18:58.099Z,27.42
2018-03-02T01:21:24.536Z,19.98
2018-03-02T01:23:50.776Z,23.95
2018-03-02T01:26:17.217Z,25.25
2018-03-02T01:28:43.477Z,23.25
2018-03-02T01:31:10.059Z,24.95
2018-03-02T01:33:36.494Z,22.30
2018-03-02T01:36:03.080Z,26.17
2018-03-02T01:38:29.625Z,21.23
2018-03-02T01:40:56.036Z,21.17
2018-03-02T01:43:22.441Z,28.40
2018-03-02T01:45:48.683Z,24.60
2018-03-02T01:48:15.471Z,30.77
2018-03-02T01:50:42.075Z,24.48
2018-03-02T01:53:09.544Z,23.55
2018-03-02T01:55:35.838Z,20.48
2018-03-02T01:58:02.246Z,25.50
2018-03-02T02:00:28.483Z,26.48
2018-03-02T02:02:54.703Z,31.80
2018-03-02T02:05:20.962Z,20.40
2018-03-02T02:07:47.201Z,28.50
2018-03-02T02:10:13.446Z,30.60
2018-03-02T02:12:39.661Z,24.83
2018-03-02T02:15:05.906Z,27.58
2018-03-02T02:17:32.141Z,24.37
2018-03-02T02:19:58.395Z,23.92
2018-03-02T02:22:24.616Z,25.83
2018-03-02T02:24:50.883Z,21.60
2018-03-02T02:27:17.120Z,25.95
2018-03-02T02:29:43.352Z,28.12
2018-03-02T02:32:09.608Z,20.98
2018-03-02T02:34:35.886Z,25.10
2018-03-02T02:37:02.158Z,24.92
2018-03-02T02:39:28.382Z,25.60
2018-03-02T02:41:54.635Z,20.73
2018-03-02T02:44:20.868Z,22.92
2018-03-02T02:46:47.164Z,29.20
2018-03-02T02:49:13.398Z,21.92
2018-03-02T02:51:39.607Z,23.58
2018-03-02T02:54:05.875Z,22.30
2018-03-02T02:56:32.111Z,32.92
2018-03-02T02:58:58.370Z,20.12
2018-03-02T03:01:24.634Z,28.30
2018-03-02T03:03:50.900Z,27.90
2018-03-02T03:06:17.123Z,27.62
2018-03-02T03:08:43.375Z,28.33
2018-03-02T03:11:09.586Z,25.17
2018-03-02T03:13:35.879Z,22.83
2018-03-02T03:16:02.099Z,26.52
2018-03-02T03:18:28.338Z,27.13
2018-03-02T03:20:54.583Z,21.95
2018-03-02T03:23:20.834Z,23.45
2018-03-02T03:25:47.072Z,21.60
2018-03-02T03:28:13.287Z,22.50
2018-03-02T03:30:39.593Z,27.23
2018-03-02T03:33:05.814Z,19.95
2018-03-02T03:35:32.051Z,29.20
2018-03-02T03:37:58.271Z,21.27
2018-03-02T03:40:24.525Z,26.77
2018-03-02T03:42:50.738Z,31.08
2018-03-02T03:45:17.039Z,28.87
2018-03-02T03:47:43.330Z,21.67
2018-03-02T03:50:09.551Z,36.78
2018-03-02T03:52:35.802Z,33.67
2018-03-02T03:55:02.013Z,24.25
2018-03-02T03:57:28.244Z,25.98
2018-03-02T03:59:54.483Z,23.08
2018-03-02T04:02:20.700Z,30.17
2018-03-02T04:04:46.911Z,27.17
2018-03-02T04:07:13.143Z,25.33
2018-03-02T04:09:39.440Z,24.80
2018-03-02T04:12:05.716Z,23.38
2018-03-02T04:14:31.940Z,35.45
2018-03-02T04:16:58.167Z,19.30
2018-03-02T04:19:24.407Z,27.62
2018-03-02T04:21:50.632Z,25.33
2018-03-02T04:24:16.911Z,31.20
2018-03-02T04:26:43.159Z,23.48
2018-03-02T04:29:09.381Z,34.58
2018-03-02T04:31:35.647Z,20.10
2018-03-02T04:34:01.870Z,24.50
2018-03-02T04:36:28.118Z,24.42
2018-03-02T04:38:54.331Z,21.62
2018-03-02T04:41:20.562Z,22.90
2018-03-02T04:43:46.798Z,23.98
2018-03-02T04:46:13.083Z,26.98
2018-03-02T04:48:39.331Z,24.83
2018-03-02T04:51:05.564Z,19.98
2018-03-02T04:53:31.787Z,30.45
2018-03-02T04:55:58.118Z,24.08
2018-03-02T04:58:24.351Z,30.95
2018-03-02T05:00:50.607Z,24.67
2018-03-02T05:03:16.847Z,22.25
2018-03-02T05:05:43.078Z,33.28
2018-03-02T05:08:09.348Z,20.17
2018-03-02T05:10:35.595Z,23.10
2018-03-02T05:13:01.855Z,23.90
2018-03-02T05:15:28.088Z,21.87
2018-03-02T05:17:54.327Z,28.70
2018-03-02T05:20:20.583Z,23.30
2018-03-02T05:22:46.848Z,26.50
2018-03-02T05:25:13.120Z,25.33
2018-03-02T05:27:39.371Z,21.83
2018-03-02T05:30:05.592Z,24.00
2018-03-02T05:32:31.814Z,33.58
2018-03-02T05:34:58.115Z,24.83
2018-03-02T05:37:24.335Z,28.52
2018-03-02T05:39:50.606Z,24.73
2018-03-02T05:42:16.831Z,25.67
2018-03-02T05:44:43.047Z,24.83
2018-03-02T05:47:09.331Z,22.83
2018-03-02T05:49:35.563Z,30.15
2018-03-02T05:52:01.819Z,26.35
2018-03-02T05:54:28.044Z,26.70
2018-03-02T05:56:54.274Z,42.30
2018-03-02T05:59:20.527Z,25.27
2018-03-02T06:01:46.813Z,25.77
2018-03-02T06:04:13.055Z,27.90
2018-03-02T06:06:39.263Z,27.77
2018-03-02T06:09:05.475Z,24.17
2018-03-02T06:11:31.730Z,24.92
2018-03-02T06:13:57.939Z,21.73
2018-03-02T06:16:24.183Z,20.65
2018-03-02T06:18:50.438Z,27.17
2018-03-02T06:21:16.712Z,21.52
2018-03-02T06:23:42.947Z,25.90
2018-03-02T06:26:09.163Z,24.52
2018-03-02T06:28:35.402Z,30.73
2018-03-02T06:31:01.626Z,23.05
2018-03-02T06:33:27.842Z,22.00
2018-03-02T06:35:54.075Z,19.25
2018-03-02T06:38:20.294Z,33.95
2018-03-02T06:40:46.551Z,21.60
2018-03-02T06:43:12.812Z,29.33
2018-03-02T06:45:39.031Z,33.20
2018-03-02T06:48:05.267Z,34.67
2018-03-02T06:50:31.487Z,29.27
2018-03-02T06:52:57.757Z,24.30
2018-03-02T06:55:23.977Z,23.60
2018-03-02T06:57:50.196Z,27.20
2018-03-02T07:00:16.434Z,29.83
2018-03-02T07:02:42.653Z,28.00
2018-03-02T07:05:08.987Z,22.30
2018-03-02T07:07:35.203Z,28.17
2018-03-02T07:10:01.422Z,24.73
2018-03-02T07:12:27.656Z,29.07
2018-03-02T07:14:53.885Z,29.37
2018-03-02T07:17:20.139Z,25.37
2018-03-02T07:19:46.362Z,31.10
2018-03-02T07:22:12.590Z,28.87
2018-03-02T07:24:38.820Z,30.57
2018-03-02T07:27:05.039Z,34.83
2018-03-02T07:29:31.286Z,31.90
2018-03-02T07:31:57.498Z,29.23
2018-03-02T07:34:23.707Z,35.77
2018-03-02T07:36:49.958Z,48.37
2018-03-02T07:39:16.190Z,35.93
2018-03-02T07:41:42.446Z,37.80
2018-03-02T07:44:08.750Z,36.57
2018-03-02T07:46:34.976Z,34.20
2018-03-02T07:49:01.203Z,31.10
2018-03-02T07:51:27.414Z,34.57
2018-03-02T07:53:53.683Z,37.87
2018-03-02T07:56:19.952Z,32.53
2018-03-02T07:58:46.176Z,41.03
2018-03-02T08:01:12.421Z,37.70
2018-03-02T08:03:38.657Z,35.50
2018-03-02T08:06:04.899Z,37.23
2018-03-02T08:08:31.229Z,38.70
2018-03-02T08:10:57.462Z,35.70
2018-03-02T08:13:23.720Z,35.37
2018-03-02T08:15:49.952Z,41.10
2018-03-02T08:18:16.211Z,42.83
2018-03-02T08:20:42.436Z,39.73
2018-03-02T08:23:08.655Z,43.60
2018-03-02T08:25:34.893Z,40.67
2018-03-02T08:28:01.111Z,42.70
2018-03-02T08:30:27.440Z,46.97
2018-03-02T08:32:53.747Z,34.60
2018-03-02T08:35:19.963Z,38.10
2018-03-02T08:37:46.202Z,38.37
2018-03-02T08:40:12.462Z,38.27
2018-03-02T08:42:38.734Z,38.40
2018-03-02T08:45:04.947Z,40.80
2018-03-02T08:47:31.194Z,37.03
2018-03-02T08:49:57.511Z,39.37
2018-03-02T08:52:23.747Z,38.07
2018-03-02T08:54:50.063Z,35.50
2018-03-02T08:57:16.274Z,38.30
2018-03-02T08:59:42.525Z,43.23
2018-03-02T09:02:08.767Z,40.03
2018-03-02T09:04:34.983Z,39.00
2018-03-02T09:07:01.287Z,40.57
2018-03-02T09:09:27.499Z,43.30
2018-03-02T09:11:53.710Z,39.40
2018-03-02T09:14:19.978Z,40.80
2018-03-02T09:16:46.195Z,36.30
2018-03-02T09:19:12.430Z,40.43
2018-03-02T09:21:38.671Z,36.20
2018-03-02T09:24:04.883Z,42.27
2018-03-02T09:26:31.111Z,42.70
2018-03-02T09:28:57.359Z,39.23
2018-03-02T09:31:23.582Z,37.33
2018-03-02T09:33:49.795Z,40.53
2018-03-02T09:36:16.021Z,39.20
2018-03-02T09:38:42.282Z,37.47
2018-03-02T09:41:08.523Z,30.97
2018-03-02T09:43:34.753Z,25.43
2018-03-02T09:46:01.099Z,23.37
2018-03-02T09:48:27.340Z,24.73
2018-03-02T09:50:53.571Z,24.00
2018-03-02T09:53:19.803Z,24.73
2018-03-02T09:55:46.019Z,26.23
2018-03-02T09:58:12.246Z,28.70
2018-03-02T10:00:38.519Z,26.33
2018-03-02T10:03:04.743Z,27.17
2018-03-02T10:05:30.979Z,30.43
2018-03-02T10:07:57.186Z,26.27
2018-03-02T10:10:23.399Z,23.93
2018-03-02T10:12:49.639Z,25.47
2018-03-02T10:15:15.838Z,32.70
2018-03-02T10:17:42.083Z,55.37
2018-03-02T10:20:08.307Z,26.70
2018-03-02T10:22:34.525Z,25.43
2018-03-02T10:25:00.755Z,23.43
2018-03-02T10:27:26.963Z,25.33
2018-03-02T10:29:53.203Z,25.67
2018-03-02T10:32:19.423Z,24.50
2018-03-02T10:34:45.631Z,29.53
2018-03-02T10:37:11.874Z,29.07
2018-03-02T10:42:11.102Z,25.77
2018-03-02T10:44:37.313Z,26.53
2018-03-02T10:47:03.539Z,27.67
2018-03-02T10:49:29.783Z,25.73
2018-03-02T10:51:55.984Z,22.13
2018-03-02T10:54:22.220Z,28.70
2018-03-02T10:56:48.447Z,25.13
2018-03-02T10:59:14.658Z,25.87
2018-03-02T11:01:46.905Z,25.77
2018-03-02T11:04:17.203Z,24.87
2018-03-02T11:06:43.435Z,26.33
2018-03-02T11:09:09.648Z,27.63
2018-03-02T11:11:35.899Z,26.17
2018-03-02T11:14:02.108Z,28.40
2018-03-02T11:16:28.352Z,27.30
2018-03-02T11:18:54.595Z,30.37
2018-03-02T11:21:20.806Z,26.83
2018-03-02T11:23:47.107Z,27.23
2018-03-02T11:26:13.353Z,27.83
2018-03-02T11:28:39.575Z,28.17
2018-03-02T11:31:05.808Z,29.40
2018-03-02T11:33:32.036Z,27.40
2018-03-02T11:35:58.288Z,26.50
2018-03-02T11:38:24.511Z,24.77
2018-03-02T11:40:50.748Z,26.13
2018-03-02T11:43:16.986Z,22.93
2018-03-02T11:45:43.213Z,26.57
2018-03-02T11:48:09.472Z,45.33
2018-03-02T11:50:35.691Z,27.27
2018-03-02T11:53:01.911Z,26.73
2018-03-02T11:55:28.171Z,27.37
2018-03-02T11:57:54.379Z,25.00
2018-03-02T12:00:20.639Z,23.20
2018-03-02T12:02:46.852Z,26.63
2018-03-02T12:05:13.059Z,25.60
2018-03-02T12:07:39.283Z,22.73
2018-03-02T12:10:05.511Z,27.53
2018-03-02T12:12:31.752Z,23.30
2018-03-02T12:14:57.950Z,25.13
2018-03-02T12:17:24.155Z,22.57
2018-03-02T12:19:50.389Z,23.90
2018-03-02T12:22:16.595Z,24.63
2018-03-02T12:24:42.843Z,23.37
2018-03-02T12:27:09.147Z,27.33
2018-03-02T12:29:35.355Z,22.53
2018-03-02T12:32:01.614Z,27.13
2018-03-02T12:34:27.831Z,24.87
2018-03-02T12:36:54.079Z,23.70
2018-03-02T12:39:20.317Z,26.77
2018-03-02T12:41:46.539Z,26.53
2018-03-02T12:44:12.782Z,28.03
2018-03-02T12:46:38.999Z,23.97
2018-03-02T12:49:05.251Z,25.70
2018-03-02T12:51:31.475Z,23.80
2018-03-02T12:53:57.701Z,25.67
2018-03-02T12:56:23.956Z,24.17
2018-03-02T12:58:50.211Z,25.30
2018-03-02T13:01:16.454Z,24.07
2018-03-02T13:03:42.691Z,27.03
2018-03-02T13:06:08.904Z,26.00
2018-03-02T13:08:35.167Z,25.23
2018-03-02T13:11:01.408Z,24.73
2018-03-02T13:13:27.656Z,23.63
2018-03-02T13:15:53.874Z,19.83
2018-03-02T13:18:32.511Z,26.53
2018-03-02T13:20:58.731Z,24.97
2018-03-02T13:23:24.956Z,24.30
2018-03-02T13:25:51.212Z,22.80
2018-03-02T13:41:55.599Z,24.50
2018-03-02T13:44:21.850Z,25.70
2018-03-02T13:46:48.119Z,22.80
2018-03-02T14:03:06.121Z,24.80
2018-03-02T14:05:32.367Z,26.17
2018-03-02T14:07:58.659Z,24.10
2018-03-02T14:10:24.900Z,27.60
2018-03-02T14:12:51.108Z,22.97
2018-03-02T14:15:17.314Z,21.40
2018-03-02T14:17:43.544Z,25.00
2018-03-02T14:20:09.836Z,19.10
2018-03-02T14:22:36.093Z,26.33
2018-03-02T14:25:02.337Z,22.40
2018-03-02T14:27:28.552Z,21.30
2018-03-02T14:29:54.779Z,19.33
2018-03-02T14:32:20.992Z,20.47
2018-03-02T14:34:47.231Z,21.23
2018-03-02T14:37:13.465Z,20.27
2018-03-02T14:39:39.702Z,19.47
2018-03-02T14:42:05.951Z,22.00
2018-03-02T14:44:32.168Z,22.63
2018-03-02T14:46:58.398Z,21.17
2018-03-02T14:49:24.605Z,19.67
2018-03-02T14:51:50.807Z,22.70
2018-03-02T14:54:17.033Z,24.13
2018-03-02T14:56:43.255Z,21.23
2018-03-02T14:59:09.531Z,21.57
2018-03-02T15:01:35.776Z,21.07
2018-03-02T15:04:01.996Z,21.53
2018-03-02T15:06:28.283Z,20.37
2018-03-02T15:08:54.516Z,19.90
2018-03-02T15:11:20.765Z,19.97
2018-03-02T15:13:47.024Z,16.90
2018-03-02T15:16:13.232Z,20.30
2018-03-02T15:18:39.511Z,17.83
2018-03-02T15:21:05.755Z,19.10
2018-03-02T15:23:32.059Z,21.40
2018-03-02T15:25:58.283Z,20.57
2018-03-02T15:28:24.519Z,42.60
2018-03-02T15:30:50.794Z,51.33
2018-03-02T15:33:17.016Z,62.67
2018-03-02T15:35:43.262Z,64.90
2018-03-02T15:38:09.479Z,57.43
2018-03-02T15:40:35.690Z,60.23
2018-03-02T15:43:02.034Z,57.07
2018-03-02T15:45:28.235Z,57.23
2018-03-02T15:47:54.491Z,62.07
2018-03-02T15:50:20.750Z,81.97
2018-03-02T15:52:46.955Z,67.60
2018-03-02T15:55:13.211Z,58.60
2018-03-02T15:57:39.451Z,57.77
2018-03-02T16:00:05.672Z,54.83
2018-03-02T16:02:32.130Z,56.20
2018-03-02T16:04:58.375Z,61.80
2018-03-02T16:07:24.599Z,54.07
2018-03-02T16:09:50.846Z,47.77
2018-03-02T16:12:17.128Z,54.00
2018-03-02T16:14:43.339Z,56.57
2018-03-02T16:17:09.571Z,61.10
2018-03-02T16:19:35.905Z,58.77
2018-03-02T16:22:02.143Z,56.30
2018-03-02T16:24:28.444Z,56.23
2018-03-02T16:26:55.972Z,59.90
2018-03-02T16:29:22.215Z,62.10
2018-03-02T16:31:48.470Z,46.70
2018-03-02T16:34:14.711Z,57.43
2018-03-02T16:36:40.978Z,62.30
2018-03-02T16:39:07.211Z,64.10
2018-03-02T16:41:33.456Z,49.43
2018-03-02T16:43:59.673Z,66.27
2018-03-02T16:46:26.039Z,59.07
2018-03-02T16:48:52.266Z,62.97
2018-03-02T16:51:18.517Z,56.37
2018-03-02T16:53:44.763Z,62.50
2018-03-02T16:56:11.050Z,62.40
2018-03-02T16:58:37.386Z,68.30
2018-03-02T17:01:03.656Z,55.17
2018-03-02T17:03:29.895Z,56.20
2018-03-02T17:05:56.399Z,68.17
2018-03-02T17:08:22.610Z,57.63
2018-03-02T17:10:48.894Z,62.90
2018-03-02T17:13:15.120Z,67.47
2018-03-02T17:15:41.351Z,55.97
2018-03-02T17:18:07.607Z,57.57
2018-03-02T17:20:33.838Z,53.50
2018-03-02T17:23:00.101Z,51.83
2018-03-02T17:25:26.323Z,57.17
2018-03-02T17:27:52.667Z,61.57
2018-03-02T17:30:18.942Z,55.50
2018-03-02T17:32:45.183Z,67.27
2018-03-02T17:35:11.455Z,59.33
2018-03-02T17:37:37.667Z,55.80
2018-03-02T17:40:04.271Z,60.13
2018-03-02T17:42:30.552Z,62.43
2018-03-02T17:44:56.875Z,55.33
2018-03-02T17:47:23.727Z,54.40
2018-03-02T17:49:49.958Z,57.07
2018-03-02T17:52:16.183Z,58.80
2018-03-02T17:54:42.415Z,63.73
2018-03-02T17:57:08.699Z,48.90
2018-03-02T17:59:34.986Z,66.70
2018-03-02T18:02:01.242Z,56.33
2018-03-02T18:04:27.451Z,56.10
2018-03-02T18:06:53.687Z,51.43
2018-03-02T18:09:19.907Z,60.97
2018-03-02T18:11:46.191Z,47.00
2018-03-02T18:14:12.431Z,64.20
2018-03-02T18:16:38.742Z,64.90
2018-03-02T18:19:04.997Z,64.37
2018-03-02T18:21:31.241Z,65.93
2018-03-02T18:23:57.848Z,55.30
2018-03-02T18:26:24.306Z,59.20
2018-03-02T18:28:50.539Z,53.33
2018-03-02T18:31:16.895Z,55.73
2018-03-02T18:33:43.111Z,63.60
2018-03-02T18:36:09.503Z,62.90
2018-03-02T18:38:35.760Z,59.57
2018-03-02T18:41:02.011Z,60.57
2018-03-02T18:43:28.429Z,63.30
2018-03-02T18:45:54.672Z,58.60
2018-03-02T18:48:20.996Z,55.30
2018-03-02T18:50:47.230Z,54.10
2018-03-02T18:53:13.721Z,58.57
2018-03-02T18:55:39.967Z,69.90
2018-03-02T18:58:06.335Z,56.33
2018-03-02T19:00:32.583Z,48.60
2018-03-02T19:02:58.851Z,63.20
2018-03-02T19:05:25.068Z,60.57
2018-03-02T19:07:51.318Z,61.13
2018-03-02T19:10:17.547Z,52.90
2018-03-02T19:12:43.907Z,65.77
2018-03-02T19:15:10.239Z,58.30
2018-03-02T19:17:36.668Z,64.50
2018-03-02T19:20:03.084Z,58.83
2018-03-02T19:22:29.395Z,54.70
2018-03-02T19:24:55.655Z,61.37
2018-03-02T19:27:22.225Z,58.73
2018-03-02T19:29:48.424Z,62.37
2018-03-02T19:32:14.890Z,52.30
2018-03-02T19:34:41.162Z,55.77
2018-03-02T19:37:07.499Z,55.43
2018-03-02T19:39:33.894Z,55.53
2018-03-02T19:42:00.158Z,59.80
2018-03-02T19:44:26.602Z,53.90
2018-03-02T19:46:52.995Z,57.13
2018-03-02T19:49:19.478Z,59.73
2018-03-02T19:51:45.766Z,49.63
2018-03-02T19:54:12.011Z,53.40
2018-03-02T19:56:38.310Z,60.17
2018-03-02T19:59:04.563Z,56.43
2018-03-02T20:01:30.794Z,55.30
2018-03-02T20:03:57.196Z,59.20
2018-03-02T20:06:23.577Z,56.07
2018-03-02T20:08:49.906Z,59.97
2018-03-02T20:11:16.453Z,58.67
2018-03-02T20:13:42.687Z,58.33
2018-03-02T20:16:08.999Z,56.03
2018-03-02T20:18:35.219Z,58.33
2018-03-02T20:21:01.430Z,60.00
2018-03-02T20:23:27.675Z,60.20
2018-03-02T20:25:53.894Z,56.83
2018-03-02T20:28:20.134Z,51.07
2018-03-02T20:30:46.359Z,57.10
2018-03-02T20:33:12.584Z,54.63
2018-03-02T20:35:38.828Z,56.33
2018-03-02T20:38:05.043Z,49.00
2018-03-02T20:40:31.295Z,54.20
2018-03-02T20:42:57.520Z,60.37
2018-03-02T20:45:23.730Z,53.60
2018-03-02T20:47:49.978Z,53.37
2018-03-02T20:50:16.253Z,51.90
2018-03-02T20:52:42.594Z,58.57
2018-03-02T20:55:08.823Z,45.57
2018-03-02T20:57:35.044Z,52.27
2018-03-02T21:00:01.299Z,59.00
2018-03-02T21:02:27.520Z,61.50
2018-03-02T21:04:53.779Z,60.13
2018-03-02T21:07:20.000Z,48.97
2018-03-02T21:09:46.406Z,53.30
2018-03-02T21:12:12.671Z,49.53
2018-03-02T21:14:39.004Z,53.57
2018-03-02T21:17:05.303Z,45.57
2018-03-02T21:19:31.556Z,46.93
2018-03-02T21:21:57.779Z,45.83
2018-03-02T21:24:24.019Z,50.57
2018-03-02T21:26:50.262Z,55.00
2018-03-02T21:29:16.515Z,42.33
2018-03-02T21:31:42.792Z,54.23
2018-03-02T21:34:09.026Z,48.40
2018-03-02T21:36:35.273Z,53.10
2018-03-02T21:39:01.508Z,51.80
2018-03-02T21:41:27.763Z,43.90
2018-03-02T21:43:53.990Z,47.53
2018-03-02T21:46:20.216Z,45.13
2018-03-02T21:48:46.471Z,53.63
2018-03-02T21:51:12.708Z,51.73
2018-03-02T21:53:38.979Z,55.57
2018-03-02T21:56:05.211Z,44.97
2018-03-02T21:58:31.432Z,50.80
2018-03-02T22:00:57.703Z,47.07
2018-03-02T22:03:23.939Z,60.50
2018-03-02T22:05:50.194Z,62.43
2018-03-02T22:08:16.733Z,43.83
2018-03-02T22:10:43.101Z,42.67
2018-03-02T22:13:09.427Z,43.60
2018-03-02T22:15:35.663Z,47.80
2018-03-02T22:18:01.919Z,47.27
2018-03-02T22:20:28.131Z,39.33
2018-03-02T22:22:54.363Z,47.17
2018-03-02T22:25:20.599Z,44.23
2018-03-02T22:27:46.915Z,42.67
2018-03-02T22:30:13.168Z,35.97
2018-03-02T22:32:39.416Z,54.37
2018-03-02T22:35:05.643Z,56.57
2018-03-02T22:37:32.642Z,74.50
2018-03-02T22:39:58.859Z,56.03
2018-03-02T22:42:25.075Z,44.93
2018-03-02T22:44:51.344Z,42.13
2018-03-02T22:47:17.562Z,35.53
2018-03-02T22:49:43.788Z,42.40
2018-03-02T22:52:10.323Z,42.03
2018-03-02T22:54:36.554Z,39.97
2018-03-02T22:57:02.774Z,45.30
2018-03-02T22:59:29.388Z,36.73
2018-03-02T23:01:56.259Z,37.90
2018-03-02T23:04:22.607Z,33.57
2018-03-02T23:06:48.827Z,39.20
2018-03-02T23:09:15.034Z,42.93
2018-03-02T23:11:41.281Z,40.13
2018-03-02T23:14:07.527Z,28.07
2018-03-02T23:16:33.767Z,33.77
2018-03-02T23:18:59.982Z,36.43
2018-03-02T23:21:26.226Z,41.77
2018-03-02T23:23:52.449Z,36.97
2018-03-02T23:26:18.655Z,41.03
2018-03-02T23:28:44.895Z,34.73
2018-03-02T23:31:11.111Z,42.70
2018-03-02T23:33:37.318Z,37.50
2018-03-02T23:36:03.556Z,32.77
2018-03-02T23:38:29.803Z,33.27
2018-03-02T23:40:56.035Z,32.93
2018-03-02T23:43:22.241Z,41.77
2018-03-02T23:45:48.478Z,40.23
2018-03-02T23:48:14.702Z,46.67
2018-03-02T23:50:40.907Z,40.97
2018-03-02T23:53:07.146Z,45.20
2018-03-02T23:55:33.360Z,38.47
2018-03-02T23:57:59.578Z,39.20
